Share

Gerlach, NV

Alturas Municipal (KAAT) Elev 4373 ft | 41.49 °N, 120.56 °W | Change Station

Current weather conditions updated 1 hour ago

Scattered Clouds
Scattered Clouds
62 °F
Feels Like 62 °F
N
29
Wind Variable Wind from NNW
Gusts 36 mph
Sunrise 6:15 AM
Sunset 7:41 PM
Moon Waning Gibbous

Tomorrow is forecast to be Much Cooler than today.

Pressure 29.80 in
Visibility 10.0 miles
Clouds Few 8000 ft
Scattered Clouds 12000 ft
Dew Point 40 °F
Humidity 44%
Rainfall 0.00 in
Snow Depth Not available.
UV 3 out of 16
Pollen 9.70 out of 12
Air Quality Not available.
Flu Activity Sporadic
METAR KAAT 172355Z AUTO 33025G31KT 10SM FEW080 SCT120 17/04 A2983 RMK AO2 PK WND 28032/2313 WSHFT 2319 SLP090 T01670044 10233 20167 53004

More Conditions Fewer Conditions

Pressure 29.80 in
Visibility 10.0 miles
Clouds Few 8000 ft
Scattered Clouds 12000 ft
Dew Point 40 °F
Humidity 44%
Rainfall 0.00 in
Snow Depth Not available.
UV 3 out of 16
Pollen 9.70 out of 12
Air Quality Not available.
Flu Activity Sporadic
METAR KAAT 172355Z AUTO 33025G31KT 10SM FEW080 SCT120 17/04 A2983 RMK AO2 PK WND 28032/2313 WSHFT 2319 SLP090 T01670044 10233 20167 53004

More Conditions Fewer Conditions

10-Day Forecast

Almanac

Astronomy

Apr. 17, 2014 Rise Set
Actual Time 6:15 AM PDT 7:41 PM PDT
Civil Twilight 5:47 AM PDT 8:10 PM PDT
Nautical Twilight 5:12 AM PDT 8:44 PM PDT
Astronomical Twilight 4:35 AM PDT 9:21 PM PDT
Moon 10:33 PM PDT (4/17) 7:50 AM PDT (4/17)
Length of Visible Light 14h 23m
Length of Day
13h 25m
Tomorrow will be 2m 36s longer.
Waning Gibbous, 91% of the Moon is Illuminated
Today
Waning Gibbous
Apr 22
Last Quarter
Apr 29
New
May 6
First Quarter
May 14
Full

Today's Extremes

State Highs State Lows

Community

  • Morning Light
    Morning Light
  • New Day
    New Day
  • Lake Michigan Sunrise
    Lake Michigan Sunrise
  • sunset from izmir, narlıdere
    sunset from izmir, narlıdere
  • oregon cherry
    oregon cherry

WunderPhotos

Upload Photos

1,702,189 photos uploaded!

WunderBlogs® & News

Nearby

Snow Depth

Station Depth Elevation
Sheldon 0 in 5860 ft
Disaster Peak 2 in 6500 ft
Lamance Creek 2 in 6000 ft
Granite Peak 30 in 7800 ft
Buckskin Lower 3 in 6700 ft

Coastal Water Temperatures

Place Temperature
No Stations Reporting

Earthquake Activity

City Distance Mag. Time & Date
Alturas, California 12 miles 2.9 12:39 AM PDT
2014-04-13
Minimum magnitude displayed is 2.5.

Nearby Weather Stations

There are no personal weather stations in this area.

What do you think?

We're not finished. Please let us know what you like, what you don't like, and what you are still missing.